Time;durP1;ratioP1;P1;durP2;ratioP2;P2;SDS_P1;SDS_P2;PMS_P1;PMS_P2;Temp;Humidity;BMP_temperature;BMP_pressure;BME280_temperature;BME280_humidity;BME280_pressure;Samples;Min_cycle;Max_cycle;Signal;HPM_P1;HPM_P2
2021/10/31 00:00:55;;;;;;;4.9;2.7;;;;;;;11.7;57.91699;934.4896;;;;
2021/10/31 00:03:20;;;;;;;2.6;1.9;;;;;;;11.64;57.9082;934.4394;;;;
2021/10/31 00:05:45;;;;;;;3.5;2.5;;;;;;;11.52;58.66113;934.495;;;;
2021/10/31 00:08:11;;;;;;;3.9;2.2;;;;;;;11.48;59.12207;934.4958;;;;
2021/10/31 00:10:37;;;;;;;3.5;2.1;;;;;;;11.4;58.84961;934.4875;;;;
2021/10/31 00:13:01;;;;;;;3;1.8;;;;;;;11.45;57.25391;934.5086;;;;
2021/10/31 00:15:27;;;;;;;2.6;2;;;;;;;11.63;57.59863;934.6013;;;;
2021/10/31 00:18:41;;;;;;;5.2;2.1;;;;;;;11.63;57.54102;934.6053;;;;
2021/10/31 00:21:25;;;;;;;5.9;2.6;;;;;;;11.47;58.86914;934.5261;;;;
2021/10/31 00:23:48;;;;;;;5.8;2.4;;;;;;;11.54;59.50879;934.495;;;;
2021/10/31 00:26:13;;;;;;;6.6;2.9;;;;;;;11.48;59.56836;934.5198;;;;
2021/10/31 00:28:38;;;;;;;4.2;2.2;;;;;;;11.24;59.62793;934.584;;;;
2021/10/31 00:31:03;;;;;;;3.2;1.9;;;;;;;11.31;59.3291;934.58;;;;
2021/10/31 00:33:29;;;;;;;3.9;2.1;;;;;;;11.32;59.63965;934.5602;;;;
2021/10/31 00:35:54;;;;;;;3.5;1.7;;;;;;;11.37;59.50977;934.5833;;;;
2021/10/31 00:38:20;;;;;;;1.6;1.5;;;;;;;11.33;58.72559;934.5338;;;;
2021/10/31 00:40:46;;;;;;;2.9;1.4;;;;;;;11.45;56.5791;934.4919;;;;
2021/10/31 00:43:11;;;;;;;1.2;1.1;;;;;;;11.71;55.27344;934.4386;;;;
2021/10/31 00:45:36;;;;;;;3;1.5;;;;;;;11.94;55.1084;934.4634;;;;
2021/10/31 00:48:03;;;;;;;1.9;1.3;;;;;;;12;56.61719;934.3971;;;;
2021/10/31 00:50:29;;;;;;;1.2;1;;;;;;;11.99;56.35156;934.4698;;;;
2021/10/31 00:52:54;;;;;;;1.4;1.2;;;;;;;12.05;56.63379;934.4788;;;;
2021/10/31 00:55:20;;;;;;;1.7;1.3;;;;;;;11.7;58.71973;934.4592;;;;
2021/10/31 00:57:46;;;;;;;1.4;1.3;;;;;;;11.38;59.38379;934.4326;;;;
2021/10/31 01:00:13;;;;;;;2.4;1.5;;;;;;;11.4;59.52441;934.5203;;;;
2021/10/31 01:02:38;;;;;;;4.3;2.1;;;;;;;11.16;60.39453;934.4489;;;;
2021/10/31 01:05:03;;;;;;;2.8;2;;;;;;;11.28;60.21582;934.4804;;;;
2021/10/31 01:07:29;;;;;;;5.3;2.1;;;;;;;11.13;60.97363;934.4345;;;;
2021/10/31 01:09:54;;;;;;;3.1;2;;;;;;;11.05;61.43262;934.4297;;;;
2021/10/31 01:12:19;;;;;;;5.1;2.7;;;;;;;10.95;62.15918;934.5168;;;;
2021/10/31 01:14:46;;;;;;;3.9;2.1;;;;;;;10.76;63.02344;934.4788;;;;
2021/10/31 01:17:10;;;;;;;5.6;2.3;;;;;;;10.63;63.56445;934.3996;;;;
2021/10/31 01:19:35;;;;;;;3.9;2;;;;;;;10.46;64.17773;934.4584;;;;
2021/10/31 01:26:59;;;;;;;4.5;2.6;;;;;;;10.32;64.5918;934.4633;;;;
2021/10/31 01:29:25;;;;;;;5.3;2.8;;;;;;;10.32;64.81934;934.4378;;;;
2021/10/31 01:31:50;;;;;;;7.6;2.9;;;;;;;10.41;64.69531;934.4719;;;;
2021/10/31 01:34:15;;;;;;;8.6;3.6;;;;;;;10.45;64.77051;934.5547;;;;
2021/10/31 01:36:55;;;;;;;8.2;3.2;;;;;;;10.53;64.59863;934.5566;;;;
2021/10/31 01:39:05;;;;;;;5.2;2.3;;;;;;;10.41;65.0498;934.5114;;;;
2021/10/31 01:41:30;;;;;;;5.8;2.3;;;;;;;10.35;65.21289;934.632;;;;
2021/10/31 01:43:56;;;;;;;5.3;2.1;;;;;;;10.26;64.94824;934.6476;;;;
2021/10/31 01:46:21;;;;;;;4.8;2.5;;;;;;;10.06;65.86328;934.5577;;;;
2021/10/31 01:48:46;;;;;;;5.1;2.1;;;;;;;10.33;63.49707;934.6002;;;;
2021/10/31 01:51:11;;;;;;;5.9;2.2;;;;;;;10.17;65.48242;934.5781;;;;
2021/10/31 01:53:36;;;;;;;4.9;2.4;;;;;;;10.07;66.01465;934.6174;;;;
2021/10/31 01:56:01;;;;;;;4.5;2.2;;;;;;;9.88;67.11426;934.6925;;;;
2021/10/31 01:58:27;;;;;;;4.5;2.1;;;;;;;9.8;66.9873;934.6392;;;;
2021/10/31 02:00:52;;;;;;;4.6;2.2;;;;;;;9.75;67.50293;934.6197;;;;
2021/10/31 02:03:20;;;;;;;3.2;1.7;;;;;;;9.7;67.38086;934.6083;;;;
2021/10/31 02:05:45;;;;;;;2.8;1.2;;;;;;;9.86;65.1377;934.6247;;;;
2021/10/31 02:08:13;;;;;;;3.6;1.8;;;;;;;9.91;66.04785;934.5845;;;;
2021/10/31 02:10:38;;;;;;;2.1;1.3;;;;;;;9.98;65.47559;934.6096;;;;
2021/10/31 02:13:05;;;;;;;2;1.7;;;;;;;9.95;65.9834;934.6475;;;;
2021/10/31 02:15:30;;;;;;;2.4;1.4;;;;;;;9.92;66.15039;934.6473;;;;
2021/10/31 02:17:56;;;;;;;2.4;1.8;;;;;;;9.76;66.21777;934.6191;;;;
2021/10/31 02:20:21;;;;;;;1.4;1.3;;;;;;;9.82;64.44824;934.5911;;;;
2021/10/31 02:22:46;;;;;;;2.6;1.5;;;;;;;9.89;65.45117;934.5844;;;;
2021/10/31 02:25:13;;;;;;;1.5;1.4;;;;;;;9.86;65.54785;934.6199;;;;
2021/10/31 02:27:42;;;;;;;1.6;1.4;;;;;;;9.89;65.35938;934.5064;;;;
2021/10/31 02:30:31;;;;;;;3.1;1.9;;;;;;;9.62;66.59375;934.5823;;;;
2021/10/31 02:33:04;;;;;;;2.9;1.5;;;;;;;9.22;68.27344;934.5032;;;;
2021/10/31 02:35:22;;;;;;;2.7;1.9;;;;;;;9.15;68.94629;934.535;;;;
2021/10/31 02:37:51;;;;;;;2.9;2.1;;;;;;;9.18;69.14453;934.4963;;;;
2021/10/31 02:40:12;;;;;;;3.7;2;;;;;;;9.12;69.3291;934.5148;;;;
2021/10/31 02:42:37;;;;;;;4.3;2.4;;;;;;;8.95;70.16602;934.4908;;;;
2021/10/31 02:45:02;;;;;;;2.6;1.8;;;;;;;8.92;70.16211;934.5009;;;;
2021/10/31 02:47:27;;;;;;;3.6;1.9;;;;;;;9.02;69.90332;934.4242;;;;
2021/10/31 02:49:53;;;;;;;2.4;1.7;;;;;;;9.06;69.6377;934.5206;;;;
2021/10/31 02:52:18;;;;;;;6;2.4;;;;;;;9;69.78613;934.5182;;;;
2021/10/31 02:54:44;;;;;;;3.6;2.3;;;;;;;8.93;70.11621;934.5287;;;;
2021/10/31 02:57:09;;;;;;;4.4;2;;;;;;;8.96;70.13379;934.5314;;;;
2021/10/31 02:59:34;;;;;;;3.5;2;;;;;;;9.09;69.79004;934.5646;;;;
2021/10/31 03:01:59;;;;;;;4;1.7;;;;;;;9.13;69.68359;934.5236;;;;
2021/10/31 03:04:27;;;;;;;3;2;;;;;;;9.1;69.46289;934.4941;;;;
2021/10/31 03:06:50;;;;;;;3.6;1.8;;;;;;;9.1;69.56348;934.5369;;;;
2021/10/31 03:09:18;;;;;;;3.9;2;;;;;;;8.95;70.12012;934.5059;;;;
2021/10/31 03:11:43;;;;;;;3.6;1.7;;;;;;;8.93;70.20703;934.5033;;;;
2021/10/31 03:14:25;;;;;;;4.9;2.2;;;;;;;8.94;70.27734;934.4891;;;;
2021/10/31 03:17:09;;;;;;;2.8;1.8;;;;;;;8.85;70.46875;934.5613;;;;
2021/10/31 03:19:35;;;;;;;3.4;2.1;;;;;;;8.76;70.73828;934.5522;;;;
2021/10/31 03:22:17;;;;;;;3.9;1.8;;;;;;;8.72;70.59375;934.5359;;;;
2021/10/31 03:24:46;;;;;;;3.5;1.8;;;;;;;8.71;70.58105;934.5033;;;;
2021/10/31 03:27:11;;;;;;;2.9;1.8;;;;;;;8.75;70.51855;934.5179;;;;
2021/10/31 03:29:36;;;;;;;2.9;1.7;;;;;;;8.61;70.85938;934.4392;;;;
2021/10/31 03:32:04;;;;;;;2.1;1.7;;;;;;;8.64;70.5918;934.3605;;;;
2021/10/31 03:34:29;;;;;;;2;1.7;;;;;;;8.58;70.82031;934.3786;;;;
2021/10/31 03:36:57;;;;;;;2.8;1.6;;;;;;;8.55;71.19141;934.3712;;;;
2021/10/31 03:39:23;;;;;;;2.8;1.7;;;;;;;8.54;71.34863;934.3884;;;;
2021/10/31 03:41:50;;;;;;;3;1.7;;;;;;;8.59;71.33496;934.3898;;;;
2021/10/31 03:44:16;;;;;;;4.1;1.6;;;;;;;8.64;70.69434;934.3582;;;;
2021/10/31 03:46:40;;;;;;;3.9;1.9;;;;;;;8.46;71.34668;934.3535;;;;
2021/10/31 03:49:06;;;;;;;3.4;1.5;;;;;;;8.27;72.06445;934.3834;;;;
2021/10/31 03:51:31;;;;;;;2.7;1.7;;;;;;;8.26;72.21094;934.3245;;;;
2021/10/31 03:53:57;;;;;;;3;1.8;;;;;;;8.21;72.52148;934.3976;;;;
2021/10/31 03:56:23;;;;;;;2.1;1.5;;;;;;;8.27;72.25781;934.3105;;;;
2021/10/31 03:58:48;;;;;;;2.9;1.9;;;;;;;8.12;73.0625;934.3923;;;;
2021/10/31 04:02:31;;;;;;;4;2;;;;;;;7.98;73.81152;934.3555;;;;
2021/10/31 04:04:56;;;;;;;2.5;1.9;;;;;;;7.89;74.29492;934.4011;;;;
2021/10/31 04:07:24;;;;;;;3.5;1.9;;;;;;;7.86;74.64063;934.3198;;;;
2021/10/31 04:09:49;;;;;;;2.7;2;;;;;;;7.96;74.13574;934.3172;;;;
2021/10/31 04:12:14;;;;;;;4.6;2.5;;;;;;;7.89;74.25977;934.3702;;;;
2021/10/31 04:14:39;;;;;;;8.4;4.1;;;;;;;7.78;74.75098;934.3653;;;;
2021/10/31 04:17:04;;;;;;;7.1;3.4;;;;;;;7.99;73.77734;934.3398;;;;
2021/10/31 04:19:29;;;;;;;5;2.8;;;;;;;8.05;73.28809;934.4002;;;;
2021/10/31 04:21:55;;;;;;;9.1;4.4;;;;;;;8.07;73.17969;934.3665;;;;
2021/10/31 04:24:21;;;;;;;5.8;3.3;;;;;;;8;73.24707;934.3114;;;;
2021/10/31 04:26:46;;;;;;;3;1.8;;;;;;;8.06;73.16504;934.3052;;;;
2021/10/31 04:29:12;;;;;;;3.6;1.7;;;;;;;8.06;72.94922;934.2094;;;;
2021/10/31 04:31:39;;;;;;;4.4;1.7;;;;;;;8.14;72.84961;934.2515;;;;
2021/10/31 04:34:04;;;;;;;3.8;1.9;;;;;;;8.12;72.95996;934.2188;;;;
2021/10/31 04:36:31;;;;;;;2.8;2;;;;;;;8;73.47363;934.209;;;;
2021/10/31 04:38:56;;;;;;;3.6;2.1;;;;;;;7.77;74.25;934.2216;;;;
2021/10/31 04:41:23;;;;;;;3.3;2;;;;;;;7.51;75.41797;934.1956;;;;
2021/10/31 04:43:47;;;;;;;6.1;4.4;;;;;;;7.5;75.51855;934.1337;;;;
2021/10/31 04:46:13;;;;;;;7.6;3.3;;;;;;;7.58;75.31738;934.1983;;;;
2021/10/31 04:48:38;;;;;;;4.2;2.9;;;;;;;7.64;75.1582;934.1764;;;;
2021/10/31 04:51:16;;;;;;;4;2.4;;;;;;;7.79;74.52539;934.1277;;;;
2021/10/31 04:53:45;;;;;;;6.7;3.3;;;;;;;7.79;74.63965;934.1537;;;;
2021/10/31 04:56:10;;;;;;;6.8;4;;;;;;;7.73;74.65137;934.0944;;;;
2021/10/31 04:58:35;;;;;;;7;3.5;;;;;;;8.2;71.44043;933.9857;;;;
2021/10/31 05:01:00;;;;;;;8;4.4;;;;;;;8.09;72.60156;933.9408;;;;
2021/10/31 05:03:26;;;;;;;8.5;4.5;;;;;;;7.84;73.77344;934.0112;;;;
2021/10/31 05:05:51;;;;;;;7;4.1;;;;;;;7.73;74.40137;933.996;;;;
2021/10/31 05:08:16;;;;;;;6.6;4.1;;;;;;;7.73;74.41406;933.9288;;;;
2021/10/31 05:10:41;;;;;;;8.6;4.8;;;;;;;7.57;75.2832;933.8511;;;;
2021/10/31 05:13:07;;;;;;;9.2;4.4;;;;;;;7.55;75.49219;933.9355;;;;
2021/10/31 05:15:33;;;;;;;6.4;3.5;;;;;;;7.4;76.16992;933.9086;;;;
2021/10/31 05:17:58;;;;;;;5.5;3.6;;;;;;;7.28;76.79492;933.8824;;;;
2021/10/31 05:20:23;;;;;;;5.9;2.8;;;;;;;7.13;77.48145;933.8427;;;;
2021/10/31 05:22:50;;;;;;;4.6;3.1;;;;;;;7.16;77.55371;933.8431;;;;
2021/10/31 05:25:16;;;;;;;7.3;3.9;;;;;;;7.14;77.30371;933.7835;;;;
2021/10/31 05:27:42;;;;;;;12.4;6.3;;;;;;;7.22;76.87402;933.8173;;;;
2021/10/31 05:30:07;;;;;;;10.4;6.3;;;;;;;7.26;76.38281;933.7933;;;;
2021/10/31 05:32:35;;;;;;;10;5.4;;;;;;;7.17;76.66211;933.7498;;;;
2021/10/31 05:34:59;;;;;;;10.5;6.2;;;;;;;7.04;77.05762;933.7377;;;;
2021/10/31 05:37:31;;;;;;;11.9;6;;;;;;;7.16;76.80762;933.7711;;;;
2021/10/31 05:39:51;;;;;;;12.6;5.4;;;;;;;7.31;76.18848;933.8108;;;;
2021/10/31 05:42:18;;;;;;;9.8;5.4;;;;;;;7.39;75.82813;933.7952;;;;
2021/10/31 05:44:43;;;;;;;7.5;5;;;;;;;7.41;75.61621;933.7752;;;;
2021/10/31 05:47:10;;;;;;;8.2;5.2;;;;;;;7.44;75.58691;933.656;;;;
2021/10/31 05:49:35;;;;;;;9.4;4.9;;;;;;;7.48;75.41211;933.6106;;;;
2021/10/31 05:52:00;;;;;;;7.6;3.9;;;;;;;7.37;75.85742;933.5787;;;;
2021/10/31 05:54:25;;;;;;;4.9;3;;;;;;;7.43;75.64355;933.6251;;;;
2021/10/31 05:56:55;;;;;;;5.6;3.6;;;;;;;7.47;75.38965;933.5876;;;;
2021/10/31 05:59:20;;;;;;;6.9;4;;;;;;;7.45;75.49902;933.5549;;;;
2021/10/31 06:01:48;;;;;;;9.4;5;;;;;;;7.32;76.13281;933.6755;;;;
2021/10/31 06:04:13;;;;;;;12.8;5.8;;;;;;;7.23;76.46973;933.6259;;;;
2021/10/31 06:06:40;;;;;;;11.9;6.2;;;;;;;7.44;76.3252;933.6047;;;;
2021/10/31 06:09:05;;;;;;;9.4;5.5;;;;;;;7.46;75.64648;933.5399;;;;
2021/10/31 06:11:34;;;;;;;6.6;4.3;;;;;;;7.58;74.9209;933.5391;;;;
2021/10/31 06:13:58;;;;;;;10.4;6.2;;;;;;;7.64;74.61426;933.514;;;;
2021/10/31 06:16:23;;;;;;;16.1;8.8;;;;;;;7.59;75.21875;933.525;;;;
2021/10/31 06:18:49;;;;;;;14.4;8.5;;;;;;;7.68;74.71094;933.5502;;;;
2021/10/31 06:21:13;;;;;;;14.4;7.8;;;;;;;7.69;74.16992;933.5067;;;;
2021/10/31 06:23:39;;;;;;;11.3;5.6;;;;;;;7.75;74.09961;933.4853;;;;
2021/10/31 06:26:05;;;;;;;7.2;4.5;;;;;;;7.75;73.92969;933.459;;;;
2021/10/31 06:28:32;;;;;;;6;4.2;;;;;;;7.7;75.05664;933.3808;;;;
2021/10/31 06:31:05;;;;;;;5.6;3.8;;;;;;;7.76;74.17871;933.5067;;;;
2021/10/31 06:33:22;;;;;;;4.6;3.6;;;;;;;7.55;75.78906;933.5561;;;;
2021/10/31 06:35:47;;;;;;;8.1;5.3;;;;;;;7.55;75.93652;933.5759;;;;
2021/10/31 06:38:12;;;;;;;8.8;5.7;;;;;;;7.62;75.58496;933.5463;;;;
2021/10/31 06:40:38;;;;;;;5.4;3.8;;;;;;;7.71;75.67969;933.5076;;;;
2021/10/31 06:43:03;;;;;;;6.4;4;;;;;;;7.96;73.8291;933.5197;;;;
2021/10/31 06:45:28;;;;;;;4.8;3.6;;;;;;;8.05;73.49316;933.4758;;;;
2021/10/31 06:47:53;;;;;;;6.3;3.2;;;;;;;8.22;74.94141;933.4692;;;;
2021/10/31 06:50:21;;;;;;;5.6;2.9;;;;;;;8.53;72.55176;933.4084;;;;
2021/10/31 06:52:49;;;;;;;5.6;2.9;;;;;;;8.74;71.34766;933.4288;;;;
2021/10/31 07:11:17;;;;;;;5.6;2.3;;;;;;;10.65;60.98633;933.3981;;;;
2021/10/31 07:13:42;;;;;;;3.4;2.4;;;;;;;10.85;60.67188;933.3515;;;;
2021/10/31 07:16:10;;;;;;;5.2;2.5;;;;;;;11.08;60.95605;933.3334;;;;
2021/10/31 07:18:35;;;;;;;5.2;2.6;;;;;;;11.26;60.53516;933.3925;;;;
2021/10/31 07:21:02;;;;;;;3.6;2.6;;;;;;;11.45;59.03906;933.3965;;;;
2021/10/31 07:25:55;;;;;;;4.5;2.9;;;;;;;11.88;58.22754;933.3467;;;;
2021/10/31 07:28:22;;;;;;;10;3.3;;;;;;;11.97;57.59668;933.3224;;;;
2021/10/31 07:30:47;;;;;;;4.2;2.6;;;;;;;11.88;58.50195;933.2509;;;;
2021/10/31 07:33:13;;;;;;;4.8;2.9;;;;;;;11.89;58.08008;933.3011;;;;
2021/10/31 07:35:37;;;;;;;3;1.8;;;;;;;12.03;56.41504;933.1756;;;;
2021/10/31 07:38:04;;;;;;;4.3;2.1;;;;;;;12.28;56.38965;933.122;;;;
2021/10/31 07:40:28;;;;;;;1.7;1.2;;;;;;;12.45;54.13086;933.1484;;;;
2021/10/31 07:42:54;;;;;;;1.3;1.2;;;;;;;12.59;53.73438;933.0773;;;;
2021/10/31 07:45:20;;;;;;;2.1;1.3;;;;;;;12.62;53.69141;933.0478;;;;
2021/10/31 07:47:45;;;;;;;2.3;1.3;;;;;;;12.83;52.85645;933.0178;;;;
2021/10/31 07:50:13;;;;;;;1.4;1.1;;;;;;;13.04;53.24902;932.9476;;;;
2021/10/31 07:52:43;;;;;;;2;1.3;;;;;;;13.33;51.82617;932.9608;;;;
2021/10/31 07:55:07;;;;;;;1.6;1.2;;;;;;;13.45;50.62207;932.9519;;;;
2021/10/31 07:57:30;;;;;;;1.2;0.9;;;;;;;13.43;50.71191;932.9576;;;;
2021/10/31 07:59:54;;;;;;;1.4;1;;;;;;;13.96;50.64746;932.885;;;;
2021/10/31 08:02:21;;;;;;;1.9;1.1;;;;;;;14.58;48.86328;932.9171;;;;
2021/10/31 08:04:46;;;;;;;1.4;1;;;;;;;14.84;47.32422;932.8682;;;;
2021/10/31 08:07:13;;;;;;;2.1;0.9;;;;;;;15.38;46.22754;932.8654;;;;
2021/10/31 08:09:38;;;;;;;2;1.1;;;;;;;15.67;45.69238;932.8448;;;;
2021/10/31 08:12:03;;;;;;;3.8;1.8;;;;;;;16.38;44.64355;932.8137;;;;
2021/10/31 08:14:28;;;;;;;1.1;0.9;;;;;;;16.59;43.58887;932.7361;;;;
2021/10/31 08:16:53;;;;;;;1.5;1.3;;;;;;;16.65;42.81836;932.6628;;;;
2021/10/31 08:19:24;;;;;;;1.7;1;;;;;;;16.47;42.16504;932.7365;;;;
2021/10/31 08:21:43;;;;;;;2.1;1;;;;;;;16.98;41.57715;932.5977;;;;
2021/10/31 08:24:09;;;;;;;1.7;1.2;;;;;;;17.25;41.45215;932.5836;;;;
2021/10/31 08:26:34;;;;;;;1.4;1.1;;;;;;;17.3;43.32324;932.5438;;;;
2021/10/31 08:29:02;;;;;;;1.5;1;;;;;;;17.02;43.8291;932.5873;;;;
2021/10/31 08:31:28;;;;;;;1.4;1.2;;;;;;;16.61;46.38086;932.5823;;;;
2021/10/31 08:33:55;;;;;;;2.5;1.3;;;;;;;16.52;47.24023;932.5249;;;;
2021/10/31 08:36:16;;;;;;;2.4;1.1;;;;;;;16.36;47.74414;932.483;;;;
2021/10/31 08:38:41;;;;;;;1.9;1;;;;;;;16.12;48.35352;932.4647;;;;
2021/10/31 08:41:06;;;;;;;0.9;0.9;;;;;;;15.7;48.41113;932.459;;;;
2021/10/31 08:43:31;;;;;;;1.4;1;;;;;;;15.53;48.06836;932.4103;;;;
2021/10/31 08:45:57;;;;;;;1.5;1.2;;;;;;;15.31;46.74023;932.2963;;;;
2021/10/31 08:58:27;;;;;;;1.1;1;;;;;;;15.28;47.69531;932.1186;;;;
2021/10/31 09:00:52;;;;;;;0.9;0.9;;;;;;;15.37;47.83203;932.0046;;;;
2021/10/31 09:03:17;;;;;;;1.3;0.9;;;;;;;15.52;46.15039;931.9604;;;;
2021/10/31 09:05:42;;;;;;;1;0.9;;;;;;;15.67;45.75098;931.9564;;;;
2021/10/31 09:08:08;;;;;;;1.4;1;;;;;;;15.76;45.9668;931.9899;;;;
2021/10/31 09:10:33;;;;;;;0.7;0.7;;;;;;;15.87;46.32617;931.9189;;;;
2021/10/31 09:12:58;;;;;;;1;0.8;;;;;;;15.96;46.86719;931.8712;;;;
2021/10/31 09:15:23;;;;;;;2.3;0.8;;;;;;;16.08;46.11719;931.7958;;;;
2021/10/31 09:17:48;;;;;;;1.1;1;;;;;;;16.17;46.35742;931.7472;;;;
2021/10/31 09:20:14;;;;;;;1.3;0.9;;;;;;;16.28;46.24316;931.6492;;;;
2021/10/31 09:22:40;;;;;;;1.9;0.9;;;;;;;16.41;44.77441;931.6655;;;;
2021/10/31 09:25:05;;;;;;;0.8;0.8;;;;;;;16.55;45.28613;931.5637;;;;
2021/10/31 09:27:31;;;;;;;1.3;0.9;;;;;;;16.59;43.43848;931.4758;;;;
2021/10/31 09:29:56;;;;;;;1.1;1;;;;;;;16.66;42.80762;931.4334;;;;
2021/10/31 09:32:28;;;;;;;2;0.8;;;;;;;16.79;43.57422;931.3879;;;;
2021/10/31 09:34:50;;;;;;;1.6;1.1;;;;;;;16.79;44.14258;931.3894;;;;
2021/10/31 09:37:15;;;;;;;1.1;0.7;;;;;;;16.93;42.55664;931.317;;;;
2021/10/31 09:39:40;;;;;;;1.1;1;;;;;;;17.14;41.6377;931.3142;;;;
2021/10/31 09:42:06;;;;;;;1.3;1;;;;;;;17.4;41.7666;931.1842;;;;
2021/10/31 09:44:33;;;;;;;1.3;1.1;;;;;;;17.62;40.90625;931.2573;;;;
2021/10/31 09:46:56;;;;;;;1.5;0.7;;;;;;;17.78;40.35156;931.1774;;;;
2021/10/31 09:49:21;;;;;;;0.8;0.7;;;;;;;17.87;39.86133;931.1074;;;;
2021/10/31 09:52:07;;;;;;;0.7;0.7;;;;;;;17.95;39.56641;931.174;;;;
2021/10/31 09:54:33;;;;;;;1.6;0.9;;;;;;;17.89;40.93164;931.064;;;;
2021/10/31 09:57:38;;;;;;;0.7;0.7;;;;;;;17.91;38.76172;931.0786;;;;
2021/10/31 10:00:06;;;;;;;0.9;0.9;;;;;;;18.05;39.0293;931.0634;;;;
2021/10/31 10:02:48;;;;;;;1.2;0.9;;;;;;;18.22;39.99707;931.0002;;;;
2021/10/31 10:04:56;;;;;;;0.7;0.7;;;;;;;18.27;39.78125;930.9576;;;;
2021/10/31 10:07:23;;;;;;;1.2;0.8;;;;;;;18.48;39.61426;930.9037;;;;
2021/10/31 10:09:48;;;;;;;0.9;0.7;;;;;;;18.69;38.62109;930.8738;;;;
2021/10/31 10:12:13;;;;;;;0.7;0.6;;;;;;;18.82;40.97168;930.8358;;;;
2021/10/31 10:14:38;;;;;;;0.8;0.8;;;;;;;18.85;38.25098;930.7067;;;;
2021/10/31 10:17:03;;;;;;;0.7;0.7;;;;;;;18.94;38.50293;930.6453;;;;
2021/10/31 10:19:28;;;;;;;0.8;0.8;;;;;;;18.83;38.65723;930.5563;;;;
2021/10/31 10:21:53;;;;;;;0.7;0.7;;;;;;;18.9;37.14941;930.5436;;;;
2021/10/31 10:25:16;;;;;;;1;0.7;;;;;;;19.04;37.86035;930.5106;;;;
2021/10/31 10:27:41;;;;;;;1.4;0.9;;;;;;;19.22;37.78223;930.3856;;;;
2021/10/31 10:30:09;;;;;;;0.7;0.7;;;;;;;19.25;36.85254;930.3864;;;;
2021/10/31 10:32:58;;;;;;;1.4;0.9;;;;;;;19.2;37.11621;930.2587;;;;
2021/10/31 10:35:25;;;;;;;0.7;0.6;;;;;;;19.5;38.35449;930.2411;;;;
2021/10/31 10:38:27;;;;;;;0.9;0.8;;;;;;;19.48;37.4541;930.2022;;;;
2021/10/31 10:40:55;;;;;;;0.8;0.7;;;;;;;19.55;38.39355;930.1672;;;;
2021/10/31 10:43:20;;;;;;;0.7;0.7;;;;;;;19.62;37.4082;930.165;;;;
2021/10/31 10:45:46;;;;;;;1;0.7;;;;;;;19.64;38.43555;930.0779;;;;
2021/10/31 10:48:10;;;;;;;0.6;0.6;;;;;;;19.65;36.25684;930.0322;;;;
2021/10/31 10:50:35;;;;;;;0.8;0.7;;;;;;;19.8;37.72656;929.9109;;;;
2021/10/31 10:53:01;;;;;;;0.8;0.8;;;;;;;20.14;35.72559;929.8976;;;;
2021/10/31 10:55:26;;;;;;;1.2;0.8;;;;;;;19.99;36.87988;929.8292;;;;
2021/10/31 10:57:51;;;;;;;0.6;0.6;;;;;;;20.02;36.29883;929.753;;;;
2021/10/31 11:00:18;;;;;;;1.9;0.7;;;;;;;20.1;36.11914;929.682;;;;
2021/10/31 11:02:46;;;;;;;1.6;0.9;;;;;;;20.03;36.26465;929.6195;;;;
2021/10/31 11:05:11;;;;;;;0.8;0.8;;;;;;;20.27;36.07422;929.5678;;;;
2021/10/31 11:08:26;;;;;;;0.7;0.7;;;;;;;20.42;36.22656;929.4655;;;;
2021/10/31 11:10:54;;;;;;;3.2;1.1;;;;;;;21.21;33.53027;929.5535;;;;
2021/10/31 11:13:17;;;;;;;0.7;0.7;;;;;;;21.62;32.51953;929.4647;;;;
2021/10/31 11:15:42;;;;;;;0.7;0.7;;;;;;;22.03;33.19336;929.4534;;;;
2021/10/31 11:18:07;;;;;;;1;0.7;;;;;;;22.78;33.5791;929.3564;;;;
2021/10/31 11:20:32;;;;;;;0.7;0.7;;;;;;;23.1;31.2998;929.2271;;;;
2021/10/31 11:22:57;;;;;;;0.7;0.7;;;;;;;22.92;31.63965;929.091;;;;
2021/10/31 11:25:24;;;;;;;2.3;0.7;;;;;;;23.51;30.62305;929.1842;;;;
2021/10/31 11:27:49;;;;;;;1.7;0.8;;;;;;;23.96;29.24121;929.082;;;;
2021/10/31 11:30:19;;;;;;;0.8;0.7;;;;;;;24.21;28.75195;929.0433;;;;
2021/10/31 11:33:00;;;;;;;0.5;0.5;;;;;;;23.85;29.05762;928.9905;;;;
2021/10/31 11:35:25;;;;;;;1.4;0.6;;;;;;;23.33;29.83594;928.8768;;;;
2021/10/31 11:37:54;;;;;;;1;0.7;;;;;;;24.64;28.59082;928.9484;;;;
2021/10/31 11:40:16;;;;;;;0.6;0.6;;;;;;;24.47;28.89746;928.8819;;;;
2021/10/31 11:42:42;;;;;;;1;0.6;;;;;;;24.71;29.07813;928.9177;;;;
2021/10/31 11:45:07;;;;;;;0.6;0.6;;;;;;;24.78;28.83594;928.7649;;;;
2021/10/31 11:47:32;;;;;;;0.8;0.7;;;;;;;26.12;27.65625;928.7338;;;;
2021/10/31 11:49:57;;;;;;;1.6;0.7;;;;;;;27.18;25.58789;928.7188;;;;
2021/10/31 11:52:22;;;;;;;1.3;0.7;;;;;;;28.49;23.56934;928.6875;;;;
2021/10/31 11:54:47;;;;;;;0.7;0.6;;;;;;;29.04;22.57324;928.6537;;;;
2021/10/31 11:57:13;;;;;;;1;0.9;;;;;;;29.68;22.30762;928.5356;;;;
2021/10/31 11:59:38;;;;;;;0.6;0.6;;;;;;;29.5;21.90527;928.5864;;;;
2021/10/31 12:02:05;;;;;;;1.1;0.7;;;;;;;29.3;22.08691;928.525;;;;
2021/10/31 12:04:42;;;;;;;0.5;0.5;;;;;;;29.53;21.94238;928.5051;;;;
2021/10/31 12:06:54;;;;;;;0.6;0.6;;;;;;;31.15;20.47852;928.3805;;;;
2021/10/31 12:09:20;;;;;;;0.5;0.5;;;;;;;30.3;21.24023;928.4055;;;;
2021/10/31 12:11:44;;;;;;;0.6;0.6;;;;;;;31.14;20.62109;928.3139;;;;
2021/10/31 12:14:09;;;;;;;0.8;0.8;;;;;;;31.2;20.54004;928.2759;;;;
2021/10/31 12:16:34;;;;;;;0.6;0.6;;;;;;;30.31;21.34766;928.3286;;;;
2021/10/31 12:18:59;;;;;;;0.5;0.5;;;;;;;29.99;21.94141;928.295;;;;
2021/10/31 12:21:26;;;;;;;1;0.9;;;;;;;29.33;22.5293;928.1792;;;;
2021/10/31 12:23:51;;;;;;;0.7;0.7;;;;;;;30.28;21.59668;928.1711;;;;
2021/10/31 12:26:16;;;;;;;0.5;0.5;;;;;;;28.72;21.72461;928.1461;;;;
2021/10/31 12:28:41;;;;;;;0.6;0.5;;;;;;;28.38;22.69531;928.1195;;;;
2021/10/31 12:31:06;;;;;;;0.7;0.7;;;;;;;29.47;22.45313;928.1231;;;;
2021/10/31 12:33:31;;;;;;;1;0.5;;;;;;;30.19;21.1748;927.978;;;;
2021/10/31 12:35:56;;;;;;;0.6;0.6;;;;;;;29.31;21.50293;927.9338;;;;
2021/10/31 12:38:56;;;;;;;0.6;0.6;;;;;;;29.65;22.03223;927.9426;;;;
2021/10/31 12:41:22;;;;;;;1.3;0.6;;;;;;;29.76;21.91895;927.9023;;;;
2021/10/31 12:43:49;;;;;;;0.9;0.8;;;;;;;29.48;21.98828;927.8579;;;;
2021/10/31 12:46:13;;;;;;;0.9;0.5;;;;;;;31.22;20.18262;927.8409;;;;
2021/10/31 12:48:39;;;;;;;0.6;0.5;;;;;;;32.06;19.98047;927.8656;;;;
2021/10/31 12:51:11;;;;;;;0.7;0.6;;;;;;;32;19.39063;927.7494;;;;
2021/10/31 12:53:30;;;;;;;0.8;0.8;;;;;;;32.75;18.14941;927.7985;;;;
2021/10/31 12:55:55;;;;;;;0.9;0.6;;;;;;;31.54;19.39453;927.7234;;;;
2021/10/31 12:58:20;;;;;;;0.4;0.4;;;;;;;30.74;19.59961;927.653;;;;
2021/10/31 13:00:46;;;;;;;0.4;0.4;;;;;;;30.22;20.60352;927.6743;;;;
2021/10/31 13:03:11;;;;;;;0.5;0.5;;;;;;;31.13;19.22168;927.6437;;;;
2021/10/31 13:05:38;;;;;;;0.5;0.5;;;;;;;29.6;20.27734;927.6583;;;;
2021/10/31 13:08:02;;;;;;;0.5;0.5;;;;;;;29.59;21.00391;927.5469;;;;
2021/10/31 13:10:27;;;;;;;0.8;0.5;;;;;;;27.51;22.90039;927.5733;;;;
2021/10/31 13:13:04;;;;;;;3.8;0.9;;;;;;;26.31;23.94043;927.6233;;;;
2021/10/31 13:16:10;;;;;;;0.6;0.6;;;;;;;28.01;23.21094;927.4874;;;;
2021/10/31 13:18:36;;;;;;;1.2;0.5;;;;;;;30.01;21.5957;927.4934;;;;
2021/10/31 13:21:03;;;;;;;0.7;0.5;;;;;;;31.46;19.6543;927.4584;;;;
2021/10/31 13:23:54;;;;;;;0.6;0.6;;;;;;;31.82;19.50293;927.5145;;;;
2021/10/31 13:26:20;;;;;;;0.9;0.5;;;;;;;31.62;19.88867;927.4147;;;;
2021/10/31 13:28:45;;;;;;;1.1;0.6;;;;;;;31.57;19.51563;927.3855;;;;
2021/10/31 13:31:10;;;;;;;0.5;0.5;;;;;;;31.31;20.06738;927.3731;;;;
2021/10/31 13:33:36;;;;;;;1.5;0.6;;;;;;;32.64;18.8418;927.3395;;;;
2021/10/31 13:36:00;;;;;;;1;0.6;;;;;;;30.65;20.19336;927.3622;;;;
2021/10/31 13:38:25;;;;;;;0.5;0.5;;;;;;;30.18;20.45801;927.4418;;;;
2021/10/31 13:40:50;;;;;;;0.5;0.5;;;;;;;30.05;20.5;927.3762;;;;
2021/10/31 13:43:15;;;;;;;0.5;0.5;;;;;;;31.01;20.41211;927.3937;;;;
2021/10/31 13:45:40;;;;;;;0.5;0.4;;;;;;;31.6;19.45703;927.4122;;;;
2021/10/31 13:50:33;;;;;;;0.6;0.6;;;;;;;31.61;20.11621;927.3191;;;;
2021/10/31 13:52:58;;;;;;;0.5;0.5;;;;;;;31.96;19.5918;927.4012;;;;
2021/10/31 13:55:25;;;;;;;0.7;0.7;;;;;;;31.25;22.43262;927.3741;;;;
2021/10/31 13:57:50;;;;;;;0.6;0.6;;;;;;;29.21;22.55859;927.3763;;;;
2021/10/31 14:00:28;;;;;;;1.3;0.8;;;;;;;28.33;23.48926;927.4165;;;;
2021/10/31 14:02:53;;;;;;;1.7;0.9;;;;;;;28.32;23.72656;927.3867;;;;
2021/10/31 14:05:18;;;;;;;0.6;0.6;;;;;;;28.59;23.28906;927.4406;;;;
2021/10/31 14:07:43;;;;;;;0.8;0.8;;;;;;;28.47;23.80566;927.415;;;;
2021/10/31 14:10:09;;;;;;;0.5;0.5;;;;;;;29.27;22.83594;927.452;;;;
2021/10/31 14:12:33;;;;;;;0.6;0.5;;;;;;;30.05;21.94434;927.419;;;;
2021/10/31 14:15:01;;;;;;;0.9;0.6;;;;;;;30.49;21.71484;927.4249;;;;
2021/10/31 14:17:24;;;;;;;0.6;0.6;;;;;;;31.25;20.91309;927.4228;;;;
2021/10/31 14:19:50;;;;;;;1.9;0.6;;;;;;;32.35;20.44824;927.4755;;;;
2021/10/31 14:22:15;;;;;;;0.9;0.8;;;;;;;32.31;19.99121;927.4501;;;;
2021/10/31 14:24:40;;;;;;;1.1;0.7;;;;;;;32;20.37305;927.4496;;;;
2021/10/31 14:27:05;;;;;;;1;0.9;;;;;;;31.97;20.21582;927.503;;;;
2021/10/31 14:29:30;;;;;;;0.8;0.7;;;;;;;28.99;23.30957;927.43;;;;
2021/10/31 14:31:56;;;;;;;1.8;0.7;;;;;;;27.47;24.84473;927.4166;;;;
2021/10/31 14:34:23;;;;;;;0.7;0.7;;;;;;;27.23;25.76855;927.473;;;;
2021/10/31 14:36:45;;;;;;;0.8;0.7;;;;;;;28.39;24.41992;927.472;;;;
2021/10/31 14:39:12;;;;;;;1.8;1.2;;;;;;;28.24;24.88672;927.5348;;;;
2021/10/31 14:41:37;;;;;;;1.7;0.9;;;;;;;28.46;24.7334;927.4924;;;;
2021/10/31 14:44:02;;;;;;;0.8;0.7;;;;;;;28.94;24.16406;927.4073;;;;
2021/10/31 14:46:27;;;;;;;0.9;0.8;;;;;;;28.78;24.54785;927.4885;;;;
2021/10/31 14:48:52;;;;;;;1.2;0.8;;;;;;;27.71;25.71191;927.3884;;;;
2021/10/31 14:51:23;;;;;;;1;0.7;;;;;;;26.33;26.9707;927.5324;;;;
2021/10/31 14:53:47;;;;;;;0.9;0.8;;;;;;;25.41;29.01758;927.4637;;;;
2021/10/31 14:56:12;;;;;;;0.6;0.6;;;;;;;23.53;31.04785;927.4115;;;;
2021/10/31 14:58:41;;;;;;;1.3;0.8;;;;;;;22.64;31.70117;927.3872;;;;
2021/10/31 15:01:06;;;;;;;1.8;0.8;;;;;;;22.34;33.28711;927.4135;;;;
2021/10/31 15:03:31;;;;;;;1.4;0.8;;;;;;;21.61;34.97754;927.3547;;;;
2021/10/31 15:05:56;;;;;;;1.1;0.8;;;;;;;21.12;36.0625;927.522;;;;